createdAt,value
2022-08-20T00:01:17.079Z,16.30
2022-08-20T00:03:50.002Z,16.30
2022-08-20T00:06:20.544Z,16.30
2022-08-20T00:08:47.654Z,16.30
2022-08-20T00:11:19.481Z,16.30
2022-08-20T00:13:51.162Z,16.30
2022-08-20T00:16:20.252Z,16.20
2022-08-20T00:18:48.201Z,16.20
2022-08-20T00:21:18.862Z,16.10
2022-08-20T00:23:49.854Z,16.10
2022-08-20T00:26:18.220Z,16.00
2022-08-20T00:28:46.406Z,16.00
2022-08-20T00:31:18.174Z,15.90
2022-08-20T00:33:46.415Z,15.90
2022-08-20T00:36:15.921Z,15.90
2022-08-20T00:38:45.233Z,15.90
2022-08-20T00:41:17.755Z,15.90
2022-08-20T00:44:09.700Z,15.90
2022-08-20T00:46:38.631Z,15.90
2022-08-20T00:49:08.820Z,15.80
2022-08-20T00:51:41.654Z,15.70
2022-08-20T00:54:16.572Z,15.60
2022-08-20T00:56:48.572Z,15.60
2022-08-20T00:59:21.792Z,15.60
2022-08-20T01:01:55.576Z,15.50
2022-08-20T01:04:29.168Z,15.50
2022-08-20T01:06:56.714Z,15.40
2022-08-20T01:09:49.803Z,15.40
2022-08-20T01:12:14.779Z,15.30
2022-08-20T01:14:46.863Z,15.20
2022-08-20T01:17:22.426Z,15.20
2022-08-20T01:20:24.559Z,15.20
2022-08-20T01:23:30.891Z,15.10
2022-08-20T01:26:21.428Z,15.10
2022-08-20T01:28:53.486Z,15.10
2022-08-20T01:31:23.743Z,15.00
2022-08-20T01:33:53.531Z,14.90
2022-08-20T01:36:31.707Z,14.90
2022-08-20T01:39:01.142Z,14.90
2022-08-20T01:42:00.640Z,14.90
2022-08-20T01:44:27.948Z,14.90
2022-08-20T01:47:08.249Z,14.80
2022-08-20T01:49:36.240Z,14.80
2022-08-20T01:52:08.870Z,14.80
2022-08-20T01:54:36.340Z,14.80
2022-08-20T01:57:15.222Z,14.80
2022-08-20T01:59:43.139Z,14.80
2022-08-20T02:02:12.920Z,14.80
2022-08-20T02:04:41.169Z,14.90
2022-08-20T02:07:13.621Z,14.90
2022-08-20T02:09:41.166Z,14.90
2022-08-20T02:12:10.177Z,14.90
2022-08-20T02:14:42.578Z,14.90
2022-08-20T02:17:12.240Z,14.90
2022-08-20T02:19:48.570Z,14.90
2022-08-20T02:22:20.399Z,14.90
2022-08-20T02:24:48.849Z,14.90
2022-08-20T02:27:16.484Z,14.80
2022-08-20T02:29:43.882Z,14.90
2022-08-20T02:32:31.178Z,14.80
2022-08-20T02:34:59.995Z,14.80
2022-08-20T02:37:28.454Z,14.80
2022-08-20T02:39:55.698Z,14.80
2022-08-20T02:42:23.012Z,14.70
2022-08-20T02:44:50.311Z,14.70
2022-08-20T02:47:17.684Z,14.70
2022-08-20T02:49:44.941Z,14.70
2022-08-20T02:52:12.620Z,14.60
2022-08-20T02:54:39.799Z,14.60
2022-08-20T02:57:15.851Z,14.60
2022-08-20T02:59:44.829Z,14.60
2022-08-20T03:02:12.281Z,14.50
2022-08-20T03:04:39.618Z,14.50
2022-08-20T03:07:07.513Z,14.50
2022-08-20T03:09:34.762Z,14.50
2022-08-20T03:12:03.071Z,14.50
2022-08-20T03:14:30.465Z,14.50
2022-08-20T03:16:57.753Z,14.50
2022-08-20T03:19:25.738Z,14.50
2022-08-20T03:21:53.130Z,14.50
2022-08-20T03:24:20.360Z,14.50
2022-08-20T03:26:47.955Z,14.50
2022-08-20T03:29:15.213Z,14.50
2022-08-20T03:31:42.501Z,14.60
2022-08-20T03:34:09.802Z,14.60
2022-08-20T03:36:37.024Z,14.70
2022-08-20T03:39:07.755Z,14.70
2022-08-20T03:41:35.002Z,14.70
2022-08-20T03:44:02.295Z,14.80
2022-08-20T03:46:29.604Z,14.90
2022-08-20T03:49:00.565Z,14.90
2022-08-20T03:51:31.664Z,14.90
2022-08-20T03:54:11.597Z,15.00
2022-08-20T03:56:38.941Z,15.00
2022-08-20T03:59:06.201Z,15.00
2022-08-20T04:01:44.400Z,15.10
2022-08-20T04:04:15.792Z,15.10
2022-08-20T04:06:43.395Z,15.10
2022-08-20T04:09:12.351Z,15.20
2022-08-20T04:11:41.253Z,15.20
2022-08-20T04:14:11.258Z,15.30
2022-08-20T04:16:40.657Z,15.30
2022-08-20T04:19:08.503Z,15.30
2022-08-20T04:21:36.947Z,15.40
2022-08-20T04:24:06.242Z,15.40
2022-08-20T04:26:35.447Z,15.50
2022-08-20T04:29:02.801Z,15.50
2022-08-20T04:31:33.552Z,15.60
2022-08-20T04:34:05.269Z,15.70
2022-08-20T04:36:32.496Z,15.80
2022-08-20T04:38:59.771Z,15.80
2022-08-20T04:41:27.488Z,15.90
2022-08-20T04:43:56.503Z,16.00
2022-08-20T04:46:29.055Z,16.10
2022-08-20T04:48:57.019Z,16.30
2022-08-20T04:51:24.909Z,16.30
2022-08-20T04:53:54.122Z,16.40
2022-08-20T04:56:24.183Z,16.50
2022-08-20T04:58:52.667Z,16.60
2022-08-20T05:01:20.377Z,16.70
2022-08-20T05:03:48.088Z,16.80
2022-08-20T05:06:17.663Z,16.90
2022-08-20T05:08:45.586Z,17.00
2022-08-20T05:11:33.578Z,17.10
2022-08-20T05:14:02.521Z,17.20
2022-08-20T05:16:29.957Z,17.20
2022-08-20T05:18:57.224Z,17.30
2022-08-20T05:21:24.513Z,17.40
2022-08-20T05:23:51.749Z,17.50
2022-08-20T05:26:20.381Z,17.50
2022-08-20T05:28:57.690Z,17.60
2022-08-20T05:31:31.608Z,17.70
2022-08-20T05:34:01.144Z,17.80
2022-08-20T05:36:28.372Z,17.90
2022-08-20T05:38:55.630Z,17.90
2022-08-20T05:41:29.436Z,18.00
2022-08-20T05:44:01.566Z,18.10
2022-08-20T05:46:31.928Z,18.20
2022-08-20T05:49:01.956Z,18.30
2022-08-20T05:51:30.294Z,18.40
2022-08-20T05:53:59.093Z,18.40
2022-08-20T05:56:30.941Z,18.50
2022-08-20T05:59:04.914Z,18.60
2022-08-20T06:01:34.283Z,18.60
2022-08-20T06:04:20.629Z,18.70
2022-08-20T06:06:47.891Z,18.80
2022-08-20T06:09:30.720Z,18.90
2022-08-20T06:12:03.441Z,18.90
2022-08-20T06:14:31.942Z,19.00
2022-08-20T06:17:15.341Z,19.10
2022-08-20T06:19:44.674Z,19.20
2022-08-20T06:22:20.853Z,19.30
2022-08-20T06:24:52.229Z,19.40
2022-08-20T06:27:19.807Z,19.50
2022-08-20T06:29:47.378Z,19.60
2022-08-20T06:32:15.395Z,19.60
2022-08-20T06:34:50.585Z,19.70
2022-08-20T06:37:28.131Z,19.80
2022-08-20T06:40:07.219Z,19.90
2022-08-20T06:42:34.944Z,19.90
2022-08-20T06:45:05.094Z,19.80
2022-08-20T06:47:32.793Z,19.70
2022-08-20T06:50:00.250Z,19.60
2022-08-20T06:52:42.819Z,19.60
2022-08-20T06:55:16.300Z,19.70
2022-08-20T06:57:44.161Z,19.80
2022-08-20T07:00:15.154Z,20.00
2022-08-20T07:02:42.732Z,20.20
2022-08-20T07:05:10.903Z,20.30
2022-08-20T07:07:38.248Z,20.40
2022-08-20T07:10:08.730Z,20.50
2022-08-20T07:12:36.594Z,20.60
2022-08-20T07:15:12.193Z,20.70
2022-08-20T07:17:39.958Z,20.70
2022-08-20T07:20:10.498Z,20.80
2022-08-20T07:22:37.820Z,20.90
2022-08-20T07:25:07.121Z,21.10
2022-08-20T07:27:34.574Z,21.10
2022-08-20T07:30:55.772Z,21.20
2022-08-20T07:33:28.805Z,21.30
2022-08-20T07:35:58.719Z,21.20
2022-08-20T07:38:28.149Z,21.20
2022-08-20T07:41:04.921Z,21.20
2022-08-20T07:43:33.582Z,21.30
2022-08-20T07:46:03.194Z,21.50
2022-08-20T07:48:32.060Z,21.70
2022-08-20T07:51:04.538Z,21.80
2022-08-20T07:53:35.900Z,21.60
2022-08-20T07:56:09.913Z,21.60
2022-08-20T07:58:45.090Z,21.70
2022-08-20T08:01:12.427Z,21.80
2022-08-20T08:03:49.188Z,21.90
2022-08-20T08:06:29.813Z,21.80
2022-08-20T08:09:07.633Z,21.50
2022-08-20T08:11:38.359Z,21.40
2022-08-20T08:14:08.399Z,21.50
2022-08-20T08:16:37.040Z,21.40
2022-08-20T08:19:07.774Z,21.40
2022-08-20T08:21:35.139Z,21.50
2022-08-20T08:24:02.803Z,21.60
2022-08-20T08:26:30.098Z,21.60
2022-08-20T08:28:58.562Z,21.70
2022-08-20T08:31:26.232Z,21.70
2022-08-20T08:33:53.586Z,21.70
2022-08-20T08:36:20.771Z,21.60
2022-08-20T08:38:48.102Z,21.60
2022-08-20T08:41:29.602Z,21.60
2022-08-20T08:44:21.186Z,21.50
2022-08-20T08:46:50.522Z,21.60
2022-08-20T08:49:24.704Z,21.50
2022-08-20T08:52:12.172Z,21.60
2022-08-20T08:54:45.997Z,21.50
2022-08-20T08:57:13.298Z,21.40
2022-08-20T08:59:52.331Z,21.40
2022-08-20T09:02:30.966Z,21.50
2022-08-20T09:05:02.120Z,21.60
2022-08-20T09:07:33.481Z,21.80
2022-08-20T09:10:02.464Z,21.70
2022-08-20T09:12:29.617Z,21.60
2022-08-20T09:14:57.531Z,21.50
2022-08-20T09:17:25.081Z,21.40
2022-08-20T09:19:52.630Z,21.30
2022-08-20T09:22:26.102Z,21.10
2022-08-20T09:24:53.717Z,21.00
2022-08-20T09:27:20.930Z,21.00
2022-08-20T09:29:49.419Z,20.90
2022-08-20T09:32:22.131Z,20.90
2022-08-20T09:34:56.204Z,21.00
2022-08-20T09:37:25.769Z,21.10
2022-08-20T09:39:53.177Z,21.40
2022-08-20T09:42:27.184Z,21.50
2022-08-20T09:44:55.528Z,21.60
2022-08-20T09:47:22.852Z,21.60
2022-08-20T09:49:50.388Z,21.50
2022-08-20T09:52:29.948Z,21.40
2022-08-20T09:55:04.303Z,21.30
2022-08-20T09:57:32.165Z,21.30
2022-08-20T10:00:06.763Z,21.40
2022-08-20T10:02:33.874Z,21.60
2022-08-20T10:05:01.303Z,21.70
2022-08-20T10:07:28.445Z,21.90
2022-08-20T10:09:55.707Z,21.90
2022-08-20T10:12:22.984Z,21.90
2022-08-20T10:14:50.123Z,21.70
2022-08-20T10:17:17.369Z,21.60
2022-08-20T10:19:44.591Z,21.40
2022-08-20T10:22:12.149Z,21.40
2022-08-20T10:24:39.471Z,21.40
2022-08-20T10:27:07.530Z,21.50
2022-08-20T10:29:34.936Z,21.50
2022-08-20T10:32:16.445Z,21.50
2022-08-20T10:34:45.064Z,21.60
2022-08-20T10:37:17.383Z,21.60
2022-08-20T10:39:45.566Z,21.80
2022-08-20T10:42:12.742Z,22.10
2022-08-20T10:44:40.126Z,22.40
2022-08-20T10:47:33.044Z,22.60
2022-08-20T10:50:02.831Z,22.70
2022-08-20T10:52:30.199Z,22.50
2022-08-20T10:54:57.454Z,22.50
2022-08-20T10:57:29.926Z,22.60
2022-08-20T10:59:59.236Z,22.50
2022-08-20T11:02:27.960Z,22.50
2022-08-20T11:04:56.254Z,22.40
2022-08-20T11:07:50.741Z,22.40
2022-08-20T11:10:19.387Z,22.30
2022-08-20T11:12:47.225Z,22.20
2022-08-20T11:15:15.152Z,22.00
2022-08-20T11:17:44.778Z,21.80
2022-08-20T11:20:16.061Z,21.90
2022-08-20T11:22:43.341Z,21.80
2022-08-20T11:25:11.022Z,21.90
2022-08-20T11:27:45.348Z,21.90
2022-08-20T11:30:22.854Z,22.00
2022-08-20T11:32:50.177Z,22.10
2022-08-20T11:35:41.556Z,22.30
2022-08-20T11:38:06.229Z,22.40
2022-08-20T11:40:33.900Z,22.60
2022-08-20T11:43:17.486Z,22.80
2022-08-20T11:45:55.828Z,22.90
2022-08-20T11:48:23.325Z,22.90
2022-08-20T11:50:51.664Z,22.90
2022-08-20T11:53:18.885Z,22.70
2022-08-20T11:55:47.347Z,22.50
2022-08-20T11:58:15.030Z,22.20
2022-08-20T12:00:42.311Z,22.10
2022-08-20T12:03:11.811Z,21.90
2022-08-20T12:05:42.328Z,21.90
2022-08-20T12:08:10.123Z,21.80
2022-08-20T12:10:53.301Z,21.60
2022-08-20T12:13:20.513Z,21.50
2022-08-20T12:15:51.097Z,21.50
2022-08-20T12:18:18.337Z,21.50
2022-08-20T12:20:45.514Z,21.60
2022-08-20T12:23:13.109Z,21.60
2022-08-20T12:25:40.776Z,21.40
2022-08-20T12:28:08.348Z,21.40
2022-08-20T12:30:35.608Z,21.30
2022-08-20T12:33:02.843Z,21.30
2022-08-20T12:35:30.169Z,21.30
2022-08-20T12:37:59.069Z,21.50
2022-08-20T12:40:32.915Z,21.60
2022-08-20T12:43:02.632Z,21.70
2022-08-20T12:45:30.948Z,21.80
2022-08-20T12:48:11.359Z,21.80
2022-08-20T12:50:41.427Z,22.00
2022-08-20T12:53:09.099Z,22.00
2022-08-20T12:55:36.447Z,22.00
2022-08-20T12:58:05.425Z,22.10
2022-08-20T13:00:37.393Z,22.00
2022-08-20T13:03:07.146Z,21.90
2022-08-20T13:05:35.618Z,21.80
2022-08-20T13:08:08.700Z,21.70
2022-08-20T13:10:44.503Z,21.60
2022-08-20T13:13:17.669Z,21.50
2022-08-20T13:15:49.127Z,21.40
2022-08-20T13:18:16.666Z,21.30
2022-08-20T13:20:44.006Z,21.30
2022-08-20T13:23:11.308Z,21.20
2022-08-20T13:25:38.663Z,21.10
2022-08-20T13:28:06.483Z,21.00
2022-08-20T13:30:38.716Z,20.80
2022-08-20T13:33:06.242Z,20.70
2022-08-20T13:35:33.469Z,20.70
2022-08-20T13:38:00.663Z,20.70
2022-08-20T13:40:27.974Z,20.70
2022-08-20T13:42:55.311Z,20.80
2022-08-20T13:45:22.761Z,20.80
2022-08-20T13:47:54.661Z,20.90
2022-08-20T13:50:24.316Z,21.00
2022-08-20T13:52:52.259Z,21.00
2022-08-20T13:55:22.986Z,21.10
2022-08-20T13:57:50.666Z,21.10
2022-08-20T14:00:31.135Z,21.10
2022-08-20T14:03:03.968Z,21.20
2022-08-20T14:05:32.218Z,21.20
2022-08-20T14:08:18.401Z,21.30
2022-08-20T14:10:49.270Z,21.30
2022-08-20T14:13:20.655Z,21.40
2022-08-20T14:15:47.944Z,21.30
2022-08-20T14:18:16.477Z,21.30
2022-08-20T14:20:45.650Z,21.30
2022-08-20T14:23:13.400Z,21.30
2022-08-20T14:25:40.998Z,21.30
2022-08-20T14:28:20.256Z,21.20
2022-08-20T14:30:53.092Z,21.30
2022-08-20T14:33:21.975Z,21.20
2022-08-20T14:35:49.210Z,21.30
2022-08-20T14:38:16.511Z,21.40
2022-08-20T14:40:43.802Z,21.40
2022-08-20T14:43:11.042Z,21.50
2022-08-20T14:45:38.254Z,21.40
2022-08-20T14:48:08.871Z,21.30
2022-08-20T14:50:37.445Z,21.30
2022-08-20T14:53:05.244Z,21.30
2022-08-20T14:55:37.528Z,21.40
2022-08-20T14:58:09.604Z,21.50
2022-08-20T15:00:36.968Z,21.60
2022-08-20T15:03:04.651Z,22.00
2022-08-20T15:05:32.136Z,22.40
2022-08-20T15:08:00.029Z,22.80
2022-08-20T15:10:32.469Z,23.00
2022-08-20T15:13:00.653Z,23.00
2022-08-20T15:15:28.401Z,23.10
2022-08-20T15:17:57.920Z,23.20
2022-08-20T15:20:28.099Z,23.50
2022-08-20T15:22:55.755Z,23.80
2022-08-20T15:25:27.101Z,24.00
2022-08-20T15:27:59.293Z,24.50
2022-08-20T15:30:30.702Z,24.90
2022-08-20T15:32:58.107Z,25.20
2022-08-20T15:35:27.264Z,25.40
2022-08-20T15:37:57.696Z,25.50
2022-08-20T15:40:28.439Z,25.70
2022-08-20T15:42:59.122Z,26.00
2022-08-20T15:45:26.846Z,26.10
2022-08-20T15:48:07.467Z,26.00
2022-08-20T15:50:50.569Z,25.90
2022-08-20T15:53:33.479Z,25.70
2022-08-20T15:56:23.487Z,25.40
2022-08-20T15:58:59.157Z,25.30
2022-08-20T16:02:03.387Z,25.20
2022-08-20T16:04:45.231Z,25.10
2022-08-20T16:07:23.955Z,24.90
2022-08-20T16:10:17.238Z,24.90
2022-08-20T16:12:49.635Z,24.80
2022-08-20T16:15:34.362Z,24.70
2022-08-20T16:18:16.907Z,24.60
2022-08-20T16:20:50.278Z,24.40
2022-08-20T16:23:20.539Z,24.30
2022-08-20T16:25:53.719Z,24.10
2022-08-20T16:28:28.284Z,24.00
2022-08-20T16:31:06.688Z,23.90
2022-08-20T16:34:02.918Z,23.80
2022-08-20T16:37:02.644Z,23.70
2022-08-20T16:39:43.710Z,23.60
2022-08-20T16:42:11.021Z,23.40
2022-08-20T16:44:42.383Z,23.40
2022-08-20T16:47:19.482Z,23.30
2022-08-20T16:50:11.860Z,23.10
2022-08-20T16:52:44.875Z,23.00
2022-08-20T16:55:13.668Z,22.90
2022-08-20T16:57:40.924Z,22.80
2022-08-20T17:00:23.594Z,22.60
2022-08-20T17:03:00.109Z,22.50
2022-08-20T17:05:49.692Z,22.40
2022-08-20T17:08:33.073Z,22.30
2022-08-20T17:11:06.205Z,22.20
2022-08-20T17:13:37.221Z,22.00
2022-08-20T17:16:19.980Z,21.90
2022-08-20T17:18:52.688Z,21.80
2022-08-20T17:21:35.920Z,21.60
2022-08-20T17:24:22.399Z,21.50
2022-08-20T17:26:56.855Z,21.30
2022-08-20T17:29:28.414Z,21.20
2022-08-20T17:31:58.722Z,21.10
2022-08-20T17:34:29.543Z,21.00
2022-08-20T17:37:00.961Z,20.90
2022-08-20T17:39:31.766Z,20.80
2022-08-20T17:42:09.177Z,20.70
2022-08-20T17:44:44.297Z,20.60
2022-08-20T17:47:17.843Z,20.60
2022-08-20T17:50:02.087Z,20.50
2022-08-20T17:52:39.185Z,20.40
2022-08-20T17:55:08.731Z,20.30
2022-08-20T17:57:38.617Z,20.20
2022-08-20T18:00:16.060Z,20.20
2022-08-20T18:02:44.190Z,20.10
2022-08-20T18:05:21.569Z,20.00
2022-08-20T18:08:08.384Z,19.90
2022-08-20T18:10:42.901Z,19.90
2022-08-20T18:13:19.177Z,19.80
2022-08-20T18:15:58.897Z,19.70
2022-08-20T18:18:36.425Z,19.60
2022-08-20T18:21:40.113Z,19.50
2022-08-20T18:24:24.738Z,19.50
2022-08-20T18:27:09.279Z,19.40
2022-08-20T18:29:41.435Z,19.30
2022-08-20T18:32:32.077Z,19.30
2022-08-20T18:35:31.587Z,19.20
2022-08-20T18:38:16.547Z,19.10
2022-08-20T18:40:43.897Z,19.00
2022-08-20T18:43:28.198Z,19.00
2022-08-20T18:45:55.577Z,18.90
2022-08-20T18:48:25.211Z,18.80
2022-08-20T18:50:56.903Z,18.70
2022-08-20T18:53:34.186Z,18.70
2022-08-20T18:56:14.064Z,18.60
2022-08-20T18:59:07.462Z,18.50
2022-08-20T19:01:38.135Z,18.50
2022-08-20T19:04:18.267Z,18.40
2022-08-20T19:06:56.881Z,18.30
2022-08-20T19:09:49.614Z,18.30
2022-08-20T19:12:50.775Z,18.20
2022-08-20T19:15:21.505Z,18.20
2022-08-20T19:18:10.911Z,18.10
2022-08-20T19:20:42.384Z,18.10
2022-08-20T19:23:15.030Z,18.10
2022-08-20T19:26:00.496Z,18.00
2022-08-20T19:28:29.914Z,18.00
2022-08-20T19:31:07.985Z,18.00
2022-08-20T19:33:43.816Z,18.00
2022-08-20T19:36:15.945Z,17.90
2022-08-20T19:38:48.315Z,17.90
2022-08-20T19:41:29.249Z,17.90
2022-08-20T19:43:59.506Z,17.80
2022-08-20T19:46:44.279Z,17.80
2022-08-20T19:49:25.005Z,17.70
2022-08-20T19:52:14.315Z,17.70
2022-08-20T19:54:48.105Z,17.60
2022-08-20T19:57:17.837Z,17.50
2022-08-20T20:00:00.614Z,17.40
2022-08-20T20:02:31.252Z,17.40
2022-08-20T20:04:58.357Z,17.30
2022-08-20T20:07:37.025Z,17.30
2022-08-20T20:10:07.233Z,17.30
2022-08-20T20:12:34.734Z,17.20
2022-08-20T20:15:03.678Z,17.20
2022-08-20T20:17:35.606Z,17.20
2022-08-20T20:20:23.594Z,17.20
2022-08-20T20:23:12.073Z,17.30
2022-08-20T20:25:46.035Z,17.20
2022-08-20T20:28:30.475Z,17.30
2022-08-20T20:31:32.635Z,17.30
2022-08-20T20:34:11.514Z,17.30
2022-08-20T20:36:42.186Z,17.30
2022-08-20T20:39:24.028Z,17.30
2022-08-20T20:41:57.615Z,17.40
2022-08-20T20:44:37.305Z,17.40
2022-08-20T20:47:18.285Z,17.40
2022-08-20T20:49:52.569Z,17.40
2022-08-20T20:52:30.107Z,17.30
2022-08-20T20:55:26.739Z,17.30
2022-08-20T20:57:54.970Z,17.40
2022-08-20T21:00:25.739Z,17.40
2022-08-20T21:02:53.395Z,17.40
2022-08-20T21:05:23.636Z,17.30
2022-08-20T21:07:58.575Z,17.30
2022-08-20T21:10:32.408Z,17.30
2022-08-20T21:13:00.211Z,17.30
2022-08-20T21:15:27.939Z,17.30
2022-08-20T21:17:58.360Z,17.20
2022-08-20T21:20:26.467Z,17.20
2022-08-20T21:22:54.091Z,17.20
2022-08-20T21:25:21.461Z,17.20
2022-08-20T21:27:50.954Z,17.20
2022-08-20T21:30:19.767Z,17.10
2022-08-20T21:32:47.293Z,17.00
2022-08-20T21:35:16.155Z,17.00
2022-08-20T21:37:43.812Z,17.00
2022-08-20T21:40:12.427Z,16.90
2022-08-20T21:42:41.013Z,16.90
2022-08-20T21:45:18.632Z,16.80
2022-08-20T21:47:48.864Z,16.80
2022-08-20T21:50:18.962Z,16.80
2022-08-20T21:52:55.226Z,16.70
2022-08-20T21:55:34.049Z,16.70
2022-08-20T21:58:04.564Z,16.60
2022-08-20T22:00:53.800Z,16.60
2022-08-20T22:03:43.019Z,16.50
2022-08-20T22:06:12.590Z,16.50
2022-08-20T22:08:40.433Z,16.40
2022-08-20T22:11:10.133Z,16.40
2022-08-20T22:13:39.758Z,16.30
2022-08-20T22:16:09.598Z,16.30
2022-08-20T22:18:37.526Z,16.20
2022-08-20T22:21:10.448Z,16.20
2022-08-20T22:23:40.345Z,16.20
2022-08-20T22:26:08.551Z,16.10
2022-08-20T22:28:35.873Z,16.10
2022-08-20T22:31:03.849Z,16.10
2022-08-20T22:33:33.736Z,16.00
2022-08-20T22:36:02.206Z,16.00
2022-08-20T22:38:29.578Z,16.00
2022-08-20T22:40:57.202Z,15.90
2022-08-20T22:43:25.027Z,15.90
2022-08-20T22:45:57.248Z,15.90
2022-08-20T22:48:24.635Z,15.90
2022-08-20T22:50:52.653Z,15.80
2022-08-20T22:53:22.089Z,15.80
2022-08-20T22:55:49.562Z,15.80
2022-08-20T22:58:18.018Z,15.80
2022-08-20T23:00:47.175Z,15.70
2022-08-20T23:03:23.517Z,15.70
2022-08-20T23:06:07.392Z,15.70
2022-08-20T23:08:34.646Z,15.70
2022-08-20T23:11:01.845Z,15.70
2022-08-20T23:13:29.061Z,15.70
2022-08-20T23:15:56.466Z,15.70
2022-08-20T23:18:23.830Z,15.70
2022-08-20T23:20:54.780Z,15.70
2022-08-20T23:23:23.349Z,15.60
2022-08-20T23:25:51.547Z,15.60
2022-08-20T23:28:21.001Z,15.60
2022-08-20T23:30:48.875Z,15.60
2022-08-20T23:33:16.266Z,15.60
2022-08-20T23:35:45.333Z,15.60
2022-08-20T23:38:12.707Z,15.60
2022-08-20T23:40:40.349Z,15.60
2022-08-20T23:43:08.279Z,15.70
2022-08-20T23:45:39.742Z,15.70
2022-08-20T23:48:08.109Z,15.70
2022-08-20T23:50:36.073Z,15.80
2022-08-20T23:53:04.243Z,15.80
2022-08-20T23:55:31.922Z,15.90
2022-08-20T23:57:59.468Z,15.90
